Time;durP1;ratioP1;P1;durP2;ratioP2;P2;SDS_P1;SDS_P2;PMS_P1;PMS_P2;Temp;Humidity;BMP_temperature;BMP_pressure;BME280_temperature;BME280_humidity;BME280_pressure;Samples;Min_cycle;Max_cycle;Signal;HPM_P1;HPM_P2
2021/05/02 00:01:39;;;;;;;60.15;39.08;;;;;;;12.24;70.46;98160.55;125605;1104;103013;-71
2021/05/02 00:04:07;;;;;;;61.00;38.63;;;;;;;12.20;70.58;98157.34;125525;1104;103047;-70
2021/05/02 00:06:35;;;;;;;58.27;41.40;;;;;;;12.17;70.45;98150.45;125531;1096;103081;-71
2021/05/02 00:09:03;;;;;;;59.60;39.20;;;;;;;12.18;70.55;98167.30;125446;1104;102947;-71
2021/05/02 00:11:30;;;;;;;59.57;39.83;;;;;;;12.17;70.40;98178.95;125473;1104;103117;-71
2021/05/02 00:14:06;;;;;;;59.97;40.07;;;;;;;12.16;70.40;98182.61;125495;1104;103078;-71
2021/05/02 00:16:36;;;;;;;66.30;41.83;;;;;;;12.16;70.57;98174.61;125469;1104;103049;-71
2021/05/02 00:19:11;;;;;;;63.63;44.17;;;;;;;12.14;70.68;98180.06;125438;1104;103120;-72
2021/05/02 00:21:38;;;;;;;62.30;42.77;;;;;;;12.12;70.63;98175.88;125577;1104;103036;-71
2021/05/02 00:24:12;;;;;;;63.73;40.67;;;;;;;12.12;70.61;98167.88;125548;1105;102989;-72
2021/05/02 00:26:44;;;;;;;60.13;40.90;;;;;;;12.11;70.58;98158.20;125575;1104;103438;-71
2021/05/02 00:29:15;;;;;;;62.13;42.53;;;;;;;12.10;70.78;98154.67;125537;1104;103248;-71
2021/05/02 00:31:49;;;;;;;69.13;45.90;;;;;;;12.08;70.64;98148.65;125513;1104;103196;-70
2021/05/02 00:34:23;;;;;;;64.07;44.20;;;;;;;12.06;70.89;98145.28;125588;1104;103059;-70
2021/05/02 00:36:51;;;;;;;62.63;42.87;;;;;;;12.05;70.43;98136.47;125456;1104;103070;-70
2021/05/02 00:39:18;;;;;;;65.03;42.40;;;;;;;12.03;70.85;98134.91;126257;1096;103149;-70
2021/05/02 00:41:52;;;;;;;63.30;42.70;;;;;;;12.02;70.54;98130.59;125474;1104;102989;-69
2021/05/02 00:44:46;;;;;;;66.20;41.83;;;;;;;12.02;70.91;98126.09;125512;1104;103135;-71
2021/05/02 00:47:32;;;;;;;66.40;42.50;;;;;;;12.00;70.68;98117.39;126187;1096;103155;-69
2021/05/02 00:50:20;;;;;;;70.57;42.93;;;;;;;11.98;70.79;98114.00;125569;1104;103078;-70
2021/05/02 00:52:48;;;;;;;67.67;44.57;;;;;;;11.97;70.85;98106.98;125604;1104;103013;-70
2021/05/02 00:55:30;;;;;;;68.93;43.47;;;;;;;11.93;70.90;98105.59;125545;1104;102990;-70
2021/05/02 00:58:06;;;;;;;69.63;43.60;;;;;;;11.93;71.00;98108.26;125513;1104;103082;-70
2021/05/02 01:00:38;;;;;;;70.60;45.73;;;;;;;11.91;70.96;98102.23;125458;1104;102984;-71
2021/05/02 01:03:07;;;;;;;75.80;46.50;;;;;;;11.90;71.05;98095.22;127578;1104;100999;-70
2021/05/02 01:05:35;;;;;;;71.70;44.77;;;;;;;11.91;70.92;98092.42;127678;1104;100972;-70
2021/05/02 01:08:04;;;;;;;73.20;45.00;;;;;;;11.91;70.83;98089.77;127656;1104;101638;-70
2021/05/02 01:10:32;;;;;;;72.40;45.30;;;;;;;11.91;70.93;98087.09;127637;1104;100973;-70
2021/05/02 01:13:06;;;;;;;72.43;46.07;;;;;;;11.93;70.93;98078.12;126324;1104;102981;-70
2021/05/02 01:15:34;;;;;;;77.67;46.40;;;;;;;11.89;71.12;98078.41;125404;1104;103209;-69
2021/05/02 01:18:20;;;;;;;74.47;44.73;;;;;;;11.87;71.12;98076.85;127667;1104;100958;-70
2021/05/02 01:20:47;;;;;;;72.73;43.53;;;;;;;11.88;71.07;98074.06;127648;1104;101551;-70
2021/05/02 01:23:17;;;;;;;74.17;45.20;;;;;;;11.87;71.15;98072.38;127655;1104;101090;-69
2021/05/02 01:25:46;;;;;;;73.80;45.37;;;;;;;11.85;71.16;98065.50;127661;1104;101029;-69
2021/05/02 01:28:19;;;;;;;84.73;45.20;;;;;;;11.85;71.24;98061.02;127540;1104;103117;-69
2021/05/02 01:30:47;;;;;;;81.73;47.28;;;;;;;11.86;71.21;98053.86;125521;1104;103102;-70
2021/05/02 01:33:19;;;;;;;76.25;43.50;;;;;;;11.85;71.28;98050.37;125484;1104;103080;-72
2021/05/02 01:35:51;;;;;;;75.50;45.93;;;;;;;11.81;71.17;98045.48;125530;1104;103059;-69
2021/05/02 01:38:25;;;;;;;80.37;45.90;;;;;;;11.81;71.13;98040.98;125593;1096;103075;-70
2021/05/02 01:40:54;;;;;;;70.95;43.23;;;;;;;11.75;71.43;98034.42;125517;1096;103003;-69
2021/05/02 01:43:24;;;;;;;71.90;44.77;;;;;;;11.74;71.36;98034.55;126118;1104;102988;-70
2021/05/02 01:45:53;;;;;;;77.70;45.90;;;;;;;11.73;71.47;98032.87;125524;1104;103103;-70
2021/05/02 01:48:23;;;;;;;78.97;45.80;;;;;;;11.71;71.50;98030.36;125457;1104;103174;-70
2021/05/02 01:50:57;;;;;;;72.83;44.00;;;;;;;11.70;71.62;98030.48;125499;1104;103116;-70
2021/05/02 01:53:26;;;;;;;81.63;45.00;;;;;;;11.70;71.46;98028.68;125445;1096;103074;-69
2021/05/02 01:56:00;;;;;;;76.07;45.30;;;;;;;11.70;71.57;98022.50;125574;1100;102984;-71
2021/05/02 01:58:36;;;;;;;78.90;45.45;;;;;;;11.67;71.75;98020.13;125576;1104;103161;-69
2021/05/02 02:01:08;;;;;;;86.20;48.60;;;;;;;11.68;71.58;98017.33;125428;1104;103007;-69
2021/05/02 02:03:35;;;;;;;80.17;47.10;;;;;;;11.66;71.46;98010.45;126074;1104;102984;-71
2021/05/02 02:06:03;;;;;;;76.73;45.23;;;;;;;11.67;71.67;98001.47;125623;1104;103074;-71
2021/05/02 02:08:32;;;;;;;78.03;46.30;;;;;;;11.67;71.67;98001.47;125714;1096;103053;-70
2021/05/02 02:11:04;;;;;;;77.20;44.57;;;;;;;11.67;71.81;97991.67;125523;1096;103096;-70
2021/05/02 02:13:32;;;;;;;80.47;44.87;;;;;;;11.65;71.75;97980.33;125606;1104;103450;-69
2021/05/02 02:16:08;;;;;;;76.03;42.93;;;;;;;11.64;71.85;97969.80;125569;1104;102982;-69
2021/05/02 02:18:36;;;;;;;78.80;43.43;;;;;;;11.60;71.79;97962.13;125500;1096;103603;-71
2021/05/02 02:21:14;;;;;;;73.30;42.40;;;;;;;11.54;71.71;97946.73;125597;1100;103080;-71
2021/05/02 02:23:52;;;;;;;64.97;41.33;;;;;;;11.51;72.06;97949.68;125584;1104;103062;-70
2021/05/02 02:26:37;;;;;;;79.85;39.40;;;;;;;11.50;71.92;97953.33;125509;1104;103139;-71
2021/05/02 02:29:08;;;;;;;76.00;43.03;;;;;;;11.44;71.97;97943.25;125647;1096;103131;-70
2021/05/02 02:31:41;;;;;;;80.27;43.73;;;;;;;11.42;72.02;97940.72;125528;1096;103241;-70
2021/05/02 02:34:10;;;;;;;71.97;42.13;;;;;;;11.40;71.95;97944.52;125553;1096;103072;-70
2021/05/02 02:36:39;;;;;;;81.80;44.60;;;;;;;11.41;72.00;97932.89;125557;1104;103454;-69
2021/05/02 02:39:07;;;;;;;71.40;44.40;;;;;;;11.38;71.99;97930.51;125475;1104;103005;-70
2021/05/02 02:41:39;;;;;;;79.00;43.10;;;;;;;11.40;72.19;97924.08;125504;1096;103003;-69
2021/05/02 02:44:12;;;;;;;83.70;43.03;;;;;;;11.40;72.28;97934.73;125600;1096;102984;-70
2021/05/02 02:46:52;;;;;;;78.28;43.53;;;;;;;11.40;72.31;97936.53;125615;1104;102984;-70
2021/05/02 02:49:27;;;;;;;68.40;38.67;;;;;;;11.39;72.36;97924.20;125596;1104;103156;-70
2021/05/02 02:52:02;;;;;;;76.20;44.17;;;;;;;11.34;72.16;97916.66;125582;1104;102985;-70
2021/05/02 02:54:39;;;;;;;66.73;41.30;;;;;;;11.35;72.18;97913.02;125597;1096;103117;-71
2021/05/02 02:57:12;;;;;;;77.37;40.27;;;;;;;11.31;72.08;97909.78;125633;1104;103117;-71
2021/05/02 02:59:47;;;;;;;68.85;42.15;;;;;;;11.30;72.28;97907.28;125665;1104;102987;-72
2021/05/02 03:02:22;;;;;;;69.97;42.77;;;;;;;11.31;72.31;97914.29;125687;1104;103223;-71
2021/05/02 03:04:58;;;;;;;70.37;42.10;;;;;;;11.33;72.33;97912.33;125558;1104;103077;-71
2021/05/02 03:07:31;;;;;;;72.17;41.37;;;;;;;11.30;72.36;97913.43;125601;1104;103081;-71
2021/05/02 03:09:59;;;;;;;;;;;;;;;11.31;72.71;97911.63;125536;1104;103522;-71
2021/05/02 03:12:27;;;;;;;67.87;43.00;;;;;;;11.30;72.40;97908.11;125523;1104;103077;-71
2021/05/02 03:15:01;;;;;;;72.07;43.00;;;;;;;11.35;72.53;97914.83;125556;1104;103162;-71
2021/05/02 03:17:35;;;;;;;84.63;44.47;;;;;;;11.34;72.51;97916.66;125582;1096;103148;-71
2021/05/02 03:20:13;;;;;;;72.47;42.90;;;;;;;11.32;72.43;97910.64;125552;1104;103467;-69
2021/05/02 03:22:50;;;;;;;72.63;42.07;;;;;;;11.32;72.46;97902.66;125574;1104;103227;-71
2021/05/02 03:25:24;;;;;;;73.83;41.87;;;;;;;11.29;72.54;97889.63;125494;1096;103012;-71
2021/05/02 03:28:06;;;;;;;82.37;39.17;;;;;;;11.27;72.46;97887.10;126041;1104;102981;-70
2021/05/02 03:30:41;;;;;;;73.93;40.83;;;;;;;11.26;72.53;97884.59;125539;1104;103082;-69
2021/05/02 03:33:11;;;;;;;68.67;39.63;;;;;;;11.25;72.58;97891.73;125569;1104;103043;-70
2021/05/02 03:35:45;;;;;;;75.03;40.60;;;;;;;11.28;72.67;97890.62;125494;1104;103137;-70
2021/05/02 03:38:23;;;;;;;78.00;41.03;;;;;;;11.29;72.58;97884.31;125546;1096;103007;-69
2021/05/02 03:40:54;;;;;;;71.97;40.03;;;;;;;11.31;72.71;97879.69;125787;1104;103247;-70
2021/05/02 03:43:21;;;;;;;72.70;37.77;;;;;;;11.31;72.61;97861.05;125473;1104;103051;-69
2021/05/02 03:45:49;;;;;;;71.80;41.63;;;;;;;11.27;72.71;97864.98;125725;1096;101797;-72
2021/05/02 03:48:21;;;;;;;70.27;40.60;;;;;;;11.27;72.81;97871.13;125608;1104;103013;-71
2021/05/02 03:50:48;;;;;;;68.60;41.23;;;;;;;11.29;72.80;97869.16;125616;1104;103027;-70
2021/05/02 03:53:16;;;;;;;65.90;39.63;;;;;;;11.32;73.10;97868.05;125537;1104;103085;-71
2021/05/02 03:55:48;;;;;;;72.27;40.27;;;;;;;11.34;72.77;97866.08;127517;1104;100764;-70
2021/05/02 03:58:18;;;;;;;69.17;39.77;;;;;;;11.36;72.79;97860.59;125548;1104;103120;-73
2021/05/02 04:00:50;;;;;;;73.80;37.80;;;;;;;11.37;72.82;97852.48;125678;1104;103113;-70
2021/05/02 04:03:18;;;;;;;73.63;36.40;;;;;;;11.37;72.82;97848.96;125607;1104;103495;-69
2021/05/02 04:05:45;;;;;;;67.80;36.00;;;;;;;11.35;72.88;97849.13;125515;1104;103179;-70
2021/05/02 04:08:12;;;;;;;73.60;39.30;;;;;;;11.32;72.95;97833.45;125619;1096;103059;-73
2021/05/02 04:10:40;;;;;;;75.85;36.90;;;;;;;11.29;73.05;97818.58;125548;1096;103056;-71
2021/05/02 04:13:07;;;;;;;65.73;38.13;;;;;;;11.27;72.86;97823.22;126308;1104;103161;-71
2021/05/02 04:15:34;;;;;;;67.80;36.38;;;;;;;11.24;72.87;97817.36;125559;1104;102984;-70
2021/05/02 04:18:01;;;;;;;63.53;38.27;;;;;;;11.22;73.47;97819.33;125521;1096;103018;-71
2021/05/02 04:20:29;;;;;;;62.93;37.73;;;;;;;11.23;73.37;97818.34;125489;1104;103096;-71
2021/05/02 04:22:56;;;;;;;66.63;35.53;;;;;;;11.26;72.97;97812.73;125529;1096;103009;-71
2021/05/02 04:25:24;;;;;;;59.00;36.37;;;;;;;11.25;73.18;97811.05;125571;1097;103010;-70
2021/05/02 04:27:51;;;;;;;57.63;35.43;;;;;;;11.27;73.23;97807.25;126027;1104;102984;-70
2021/05/02 04:30:19;;;;;;;53.47;33.53;;;;;;;11.28;73.05;97797.45;125577;1096;103122;-71
2021/05/02 04:32:46;;;;;;;61.50;35.33;;;;;;;11.30;73.13;97792.82;125541;1096;103139;-71
2021/05/02 04:35:13;;;;;;;57.10;33.87;;;;;;;11.30;73.12;97784.84;125604;1104;103080;-71
2021/05/02 04:37:44;;;;;;;54.70;33.03;;;;;;;11.29;73.03;97780.50;125514;1104;103212;-71
2021/05/02 04:40:11;;;;;;;55.97;33.17;;;;;;;11.28;73.16;97781.48;125548;1096;103010;-72
2021/05/02 04:42:39;;;;;;;54.60;33.20;;;;;;;11.27;73.19;97777.97;125579;1096;103083;-71
2021/05/02 04:45:07;;;;;;;57.20;33.77;;;;;;;11.29;73.31;97785.82;125485;1104;103005;-71
2021/05/02 04:47:35;;;;;;;62.35;35.10;;;;;;;11.32;73.30;97774.88;125960;1104;102981;-72
2021/05/02 04:50:04;;;;;;;54.67;33.10;;;;;;;11.34;73.42;97780.04;125513;1104;103408;-72
2021/05/02 04:52:31;;;;;;;55.47;35.03;;;;;;;11.38;73.62;97778.76;125477;1096;103002;-71
2021/05/02 04:54:59;;;;;;;53.97;35.00;;;;;;;11.41;73.39;97770.48;125559;1104;103017;-72
2021/05/02 04:57:26;;;;;;;54.50;34.67;;;;;;;11.43;73.32;97774.66;125525;1104;103171;-73
2021/05/02 04:59:53;;;;;;;61.43;35.67;;;;;;;11.44;73.56;97773.67;125534;1104;103013;-73
2021/05/02 05:02:21;;;;;;;57.10;35.07;;;;;;;11.45;73.36;97779.84;125486;1104;103075;-73
2021/05/02 05:04:48;;;;;;;59.10;35.03;;;;;;;11.46;73.36;97776.20;125590;1104;103113;-72
2021/05/02 05:07:16;;;;;;;54.10;34.80;;;;;;;11.46;73.41;97757.56;125582;1096;102797;-71
2021/05/02 05:09:43;;;;;;;59.10;36.10;;;;;;;11.47;73.48;97756.58;125538;1104;103081;-72
2021/05/02 05:12:11;;;;;;;60.03;34.47;;;;;;;11.46;73.27;97763.70;125618;1096;103119;-69
2021/05/02 05:14:38;;;;;;;56.70;36.87;;;;;;;11.45;73.27;97753.22;125560;1096;103049;-70
2021/05/02 05:17:05;;;;;;;60.33;36.35;;;;;;;11.48;73.42;97747.59;125575;1096;102984;-71
2021/05/02 05:19:34;;;;;;;61.90;38.00;;;;;;;11.54;73.59;97764.79;125981;1096;103114;-70
2021/05/02 05:22:03;;;;;;;53.33;34.87;;;;;;;11.56;73.41;97776.98;125464;1104;103127;-70
2021/05/02 05:24:30;;;;;;;56.37;35.10;;;;;;;11.56;73.55;97760.16;125531;1104;102984;-70
2021/05/02 05:26:58;;;;;;;58.77;36.40;;;;;;;11.61;73.74;97749.89;125517;1104;102987;-70
2021/05/02 05:29:26;;;;;;;54.10;35.80;;;;;;;11.65;73.57;97750.41;125533;1096;103469;-72
2021/05/02 05:31:53;;;;;;;60.30;38.73;;;;;;;11.68;73.56;97734.98;125543;1104;103454;-71
2021/05/02 05:34:21;;;;;;;58.00;36.50;;;;;;;11.76;73.66;97736.88;125550;1104;103001;-72
2021/05/02 05:36:48;;;;;;;56.47;36.47;;;;;;;11.83;73.68;97731.77;125609;1104;103030;-70
2021/05/02 05:39:15;;;;;;;48.83;30.57;;;;;;;11.86;73.36;97732.32;125574;1104;103116;-71
2021/05/02 05:41:42;;;;;;;53.73;33.58;;;;;;;11.82;73.65;97733.61;125542;1104;103082;-71
2021/05/02 05:44:10;;;;;;;55.40;35.60;;;;;;;11.86;73.76;97737.65;125547;1104;103133;-71
2021/05/02 05:46:37;;;;;;;54.77;35.37;;;;;;;11.91;73.81;97738.03;125549;1104;103125;-69
2021/05/02 05:49:04;;;;;;;52.87;33.80;;;;;;;11.95;73.83;97737.73;125560;1097;103097;-71
2021/05/02 05:51:32;;;;;;;55.23;35.50;;;;;;;12.00;73.68;97730.97;125662;1104;103013;-70
2021/05/02 05:53:59;;;;;;;56.00;36.27;;;;;;;12.05;73.95;97719.84;125527;1096;102978;-70
2021/05/02 05:56:26;;;;;;;54.43;36.27;;;;;;;12.11;73.92;97715.73;125456;1104;103155;-70
2021/05/02 05:58:54;;;;;;;52.05;34.15;;;;;;;12.16;73.89;97708.94;125480;1104;103098;-70
2021/05/02 06:01:21;;;;;;;57.13;34.23;;;;;;;12.22;73.76;97691.50;125469;1104;103116;-71
2021/05/02 06:03:48;;;;;;;54.87;34.13;;;;;;;12.27;73.80;97686.52;125486;1104;103084;-72
2021/05/02 06:06:16;;;;;;;50.40;32.43;;;;;;;12.31;73.70;97679.88;125509;1104;102988;-72
2021/05/02 06:08:43;;;;;;;52.13;33.93;;;;;;;12.36;73.74;97687.42;125454;1096;103093;-72
2021/05/02 06:11:10;;;;;;;51.53;34.30;;;;;;;12.41;74.01;97684.27;125461;1097;102987;-70
2021/05/02 06:13:38;;;;;;;50.03;31.93;;;;;;;12.46;73.89;97674.80;125481;1104;102984;-70
2021/05/02 06:16:06;;;;;;;45.20;29.67;;;;;;;12.53;74.03;97666.16;125498;1104;102990;-70
2021/05/02 06:18:33;;;;;;;45.33;28.45;;;;;;;12.57;73.69;97655.04;125522;1104;102981;-70
2021/05/02 06:21:01;;;;;;;45.83;28.80;;;;;;;12.65;74.04;97657.72;125493;1096;103144;-70
2021/05/02 06:23:28;;;;;;;43.07;28.10;;;;;;;12.72;74.05;97657.94;125514;1094;103004;-70
2021/05/02 06:25:56;;;;;;;43.43;28.83;;;;;;;12.78;73.80;97657.30;125599;1104;103059;-73
2021/05/02 06:28:23;;;;;;;40.60;26.47;;;;;;;12.86;73.95;97652.97;125544;1096;103091;-71
2021/05/02 06:30:51;;;;;;;41.87;25.53;;;;;;;12.94;73.81;97655.67;125553;1104;103096;-72
2021/05/02 06:33:19;;;;;;;37.60;24.07;;;;;;;13.08;73.86;97641.72;125561;1096;103115;-70
2021/05/02 06:35:47;;;;;;;34.55;23.13;;;;;;;13.18;74.04;97638.08;125562;1104;103076;-72
2021/05/02 06:38:14;;;;;;;36.18;23.08;;;;;;;13.22;74.31;97626.89;125508;1096;103013;-71
2021/05/02 06:40:41;;;;;;;36.50;23.40;;;;;;;13.30;74.04;97631.41;125598;1104;103008;-72
2021/05/02 06:43:09;;;;;;;37.53;23.13;;;;;;;13.33;74.09;97630.25;125560;1104;102987;-71
2021/05/02 06:45:36;;;;;;;32.23;21.05;;;;;;;13.36;74.32;97617.39;125576;1096;103117;-72
2021/05/02 06:48:04;;;;;;;32.90;22.17;;;;;;;13.39;73.91;97618.92;125527;1104;103052;-72
2021/05/02 06:50:31;;;;;;;34.38;21.85;;;;;;;13.42;73.93;97618.63;125555;1096;103011;-73
2021/05/02 06:52:59;;;;;;;31.15;19.95;;;;;;;13.45;74.05;97620.11;125404;1096;103013;-72
2021/05/02 06:55:26;;;;;;;30.50;19.60;;;;;;;13.47;73.96;97626.95;125527;1104;103019;-72
2021/05/02 06:57:55;;;;;;;32.53;20.17;;;;;;;13.51;74.01;97625.61;125551;1104;103154;-72
2021/05/02 07:00:23;;;;;;;31.77;20.07;;;;;;;13.54;73.85;97627.14;125333;1096;103110;-72
2021/05/02 07:02:50;;;;;;;30.50;19.67;;;;;;;13.56;74.04;97614.45;125122;1104;103002;-74
2021/05/02 07:05:19;;;;;;;31.50;20.27;;;;;;;13.58;73.91;97623.13;125441;1104;103080;-73
2021/05/02 07:07:46;;;;;;;31.33;20.60;;;;;;;13.62;73.92;97615.61;125464;1104;103114;-71
2021/05/02 07:10:14;;;;;;;29.03;19.10;;;;;;;13.64;73.98;97611.78;125411;1104;103044;-70
2021/05/02 07:12:42;;;;;;;74.93;54.00;;;;;;;13.64;74.01;97606.45;125423;1104;103072;-70
2021/05/02 07:15:11;;;;;;;58.33;40.70;;;;;;;13.65;74.00;97601.92;125396;1104;103011;-70
2021/05/02 07:17:39;;;;;;;35.20;24.43;;;;;;;13.67;74.01;97598.06;125414;1104;103004;-72
2021/05/02 07:20:09;;;;;;;32.37;22.30;;;;;;;13.67;73.87;97598.06;125482;1104;103447;-74
2021/05/02 07:22:37;;;;;;;33.90;21.20;;;;;;;13.68;74.00;97593.57;125449;1104;103113;-72
2021/05/02 07:25:12;;;;;;;32.73;21.90;;;;;;;13.69;74.07;97584.55;125437;1096;103737;-69
2021/05/02 07:27:39;;;;;;;29.37;19.00;;;;;;;13.69;73.93;97581.88;125417;1104;103042;-70
2021/05/02 07:30:08;;;;;;;30.83;19.97;;;;;;;13.70;73.78;97576.36;125432;1104;103013;-70
2021/05/02 07:32:35;;;;;;;31.53;20.90;;;;;;;13.73;73.91;97575.20;125417;1104;103059;-71
2021/05/02 07:35:03;;;;;;;31.43;21.93;;;;;;;13.75;73.87;97583.03;125537;1104;102999;-70
2021/05/02 07:37:31;;;;;;;31.30;21.40;;;;;;;13.78;73.88;97583.55;125432;1104;103163;-71
2021/05/02 07:39:59;;;;;;;31.20;21.10;;;;;;;13.81;73.96;97580.55;125423;1104;103123;-71
2021/05/02 07:42:28;;;;;;;32.00;22.13;;;;;;;13.87;73.81;97581.69;125400;1096;102987;-73
2021/05/02 07:44:55;;;;;;;32.35;21.35;;;;;;;13.93;73.83;97566.80;125444;1104;103014;-71
2021/05/02 07:47:23;;;;;;;32.95;22.30;;;;;;;13.97;74.07;97573.48;125456;1104;103105;-71
2021/05/02 07:49:52;;;;;;;33.40;22.03;;;;;;;14.05;73.83;97573.47;125418;1096;103088;-71
2021/05/02 07:52:19;;;;;;;32.53;21.73;;;;;;;14.14;73.98;97569.78;125439;1104;102978;-71
2021/05/02 07:54:47;;;;;;;31.90;21.97;;;;;;;14.25;73.75;97576.59;125433;1096;103155;-72
2021/05/02 07:57:14;;;;;;;30.65;21.30;;;;;;;14.36;73.92;97564.68;125436;1104;103155;-71
2021/05/02 07:59:42;;;;;;;31.30;21.30;;;;;;;14.51;73.87;97566.64;125430;1104;103079;-73
2021/05/02 08:02:09;;;;;;;30.27;20.80;;;;;;;14.59;73.92;97570.11;125352;1104;103052;-72
2021/05/02 08:04:38;;;;;;;30.60;20.70;;;;;;;14.67;74.08;97555.02;125432;1096;103045;-71
2021/05/02 08:07:07;;;;;;;30.85;20.10;;;;;;;14.74;73.91;97554.17;125395;1104;103170;-72
2021/05/02 08:09:35;;;;;;;29.93;20.03;;;;;;;14.81;73.89;97554.33;125438;1104;103145;-73
2021/05/02 08:12:04;;;;;;;29.67;19.40;;;;;;;14.86;73.94;97559.14;125416;1104;103103;-71
2021/05/02 08:14:32;;;;;;;29.33;19.17;;;;;;;14.89;74.02;97554.25;125431;1104;103009;-71
2021/05/02 08:17:01;;;;;;;28.33;18.90;;;;;;;14.95;73.90;97562.59;125413;1096;103097;-79
2021/05/02 08:19:28;;;;;;;27.93;18.70;;;;;;;14.99;74.07;97555.88;125443;1104;102943;-79
2021/05/02 08:21:56;;;;;;;29.73;19.73;;;;;;;15.01;73.99;97549.34;125462;1104;102985;-78
2021/05/02 08:24:23;;;;;;;30.00;20.00;;;;;;;15.05;74.06;97549.81;125456;1104;103083;-81
2021/05/02 08:26:50;;;;;;;27.80;19.67;;;;;;;15.10;74.02;97558.16;125441;1096;103109;-81
2021/05/02 08:29:17;;;;;;;30.05;19.55;;;;;;;15.12;73.88;97552.60;125774;1104;103070;-81
2021/05/02 08:31:45;;;;;;;31.13;20.57;;;;;;;15.07;73.79;97563.05;125804;1104;102955;-91
2021/05/02 08:34:13;;;;;;;30.73;19.53;;;;;;;15.05;73.74;97559.70;125811;1104;103161;-87
2021/05/02 08:36:40;;;;;;;30.27;20.80;;;;;;;15.01;73.88;97573.45;125772;1096;103197;-83
2021/05/02 08:39:08;;;;;;;34.00;21.70;;;;;;;14.97;73.74;97569.45;125776;1104;103109;-79
2021/05/02 08:41:35;;;;;;;31.27;20.97;;;;;;;14.93;73.83;97584.20;125577;1104;103144;-82
2021/05/02 08:44:03;;;;;;;29.23;19.20;;;;;;;14.89;73.83;97577.52;125786;1104;102987;-80
2021/05/02 08:46:30;;;;;;;27.97;20.03;;;;;;;14.78;73.77;97578.76;125774;1104;102997;-78
2021/05/02 08:48:58;;;;;;;28.67;18.20;;;;;;;14.67;73.78;97555.02;125533;1104;102703;-82
2021/05/02 08:51:25;;;;;;;31.23;21.80;;;;;;;14.64;73.85;97542.84;125620;1104;103054;-80
2021/05/02 08:53:54;;;;;;;29.57;20.50;;;;;;;14.62;73.75;97544.01;125572;1096;102990;-80
2021/05/02 08:56:23;;;;;;;27.90;17.05;;;;;;;14.56;73.88;97534.85;125533;1104;103080;-82
2021/05/02 08:58:52;;;;;;;29.10;18.03;;;;;;;14.52;73.98;97518.30;125586;1096;103096;-83
2021/05/02 09:01:28;;;;;;;25.23;16.27;;;;;;;14.53;74.07;97506.59;125811;1104;103198;-90
2021/05/02 09:04:00;;;;;;;26.90;16.77;;;;;;;14.54;74.12;97491.38;125760;1104;103117;-81
2021/05/02 09:06:29;;;;;;;42.03;29.20;;;;;;;14.55;74.14;97468.97;125753;1096;103016;-75
2021/05/02 09:09:06;;;;;;;29.15;17.20;;;;;;;14.58;74.12;97463.27;125595;1104;103147;-76
2021/05/02 09:11:39;;;;;;;28.87;16.67;;;;;;;14.59;74.16;97444.34;125569;1096;102981;-77
2021/05/02 09:14:10;;;;;;;;;;;;;;;14.61;74.38;97427.28;125541;1104;103075;-76
2021/05/02 09:16:55;;;;;;;25.80;15.00;;;;;;;14.59;74.16;97425.63;125495;1104;103081;-75
2021/05/02 09:19:26;;;;;;;28.67;17.77;;;;;;;14.62;74.12;97437.83;125516;1104;103109;-77
2021/05/02 09:21:54;;;;;;;28.83;17.33;;;;;;;14.66;74.17;97427.59;125502;1096;103100;-76
2021/05/02 09:24:27;;;;;;;27.90;17.67;;;;;;;14.67;74.20;97429.25;125519;1096;103185;-75
2021/05/02 09:27:12;;;;;;;29.85;18.40;;;;;;;14.69;74.30;97409.35;125553;1104;102979;-75
2021/05/02 09:29:45;;;;;;;27.20;17.60;;;;;;;14.73;74.31;97404.49;125587;1096;103059;-76
2021/05/02 09:32:15;;;;;;;28.90;18.80;;;;;;;14.79;74.21;97406.45;125558;1104;103471;-74
2021/05/02 09:34:50;;;;;;;29.53;18.10;;;;;;;14.86;74.37;97407.41;125573;1104;103058;-76
2021/05/02 09:37:21;;;;;;;27.50;17.70;;;;;;;14.96;74.29;97417.01;125619;1096;103006;-76
2021/05/02 09:39:50;;;;;;;30.40;18.27;;;;;;;15.10;74.27;97410.88;125568;1104;103006;-78
2021/05/02 09:42:32;;;;;;;26.03;15.27;;;;;;;15.43;74.31;97410.55;125527;1104;103115;-76
2021/05/02 09:45:02;;;;;;;24.03;12.47;;;;;;;15.78;74.28;97420.73;125521;1104;103066;-75
2021/05/02 09:47:34;;;;;;;27.40;12.37;;;;;;;16.17;74.34;97424.13;125536;1104;102984;-76
2021/05/02 09:50:19;;;;;;;21.95;10.15;;;;;;;16.57;74.24;97426.44;125656;1104;103212;-75
2021/05/02 09:52:57;;;;;;;22.10;10.27;;;;;;;17.17;73.94;97426.17;125598;1096;103014;-75
2021/05/02 09:55:26;;;;;;;21.90;9.80;;;;;;;17.75;74.10;97419.75;125537;1104;103056;-75
2021/05/02 09:58:07;;;;;;;22.23;10.60;;;;;;;18.28;74.63;97421.88;125564;1096;103102;-75
2021/05/02 10:00:58;;;;;;;19.17;8.97;;;;;;;18.64;74.03;97414.53;125545;1104;103005;-77
2021/05/02 10:03:27;;;;;;;21.40;8.23;;;;;;;18.75;73.98;97401.29;125552;1096;103081;-74
2021/05/02 10:05:58;;;;;;;20.57;8.60;;;;;;;18.67;73.70;97398.78;125532;1104;103356;-74
2021/05/02 10:08:27;;;;;;;21.77;8.17;;;;;;;18.53;73.56;97397.13;125523;1096;103116;-73
2021/05/02 10:10:57;;;;;;;16.30;7.10;;;;;;;18.48;73.39;97386.95;125529;1104;103087;-75
2021/05/02 10:13:25;;;;;;;18.63;6.43;;;;;;;18.53;73.75;97389.05;125506;1096;103080;-74
2021/05/02 10:15:53;;;;;;;16.13;6.87;;;;;;;18.55;73.30;97387.80;125581;1104;102956;-75
2021/05/02 10:18:21;;;;;;;19.00;6.73;;;;;;;18.69;73.73;97372.48;125571;1104;103056;-75
2021/05/02 10:20:49;;;;;;;19.87;7.27;;;;;;;18.77;73.86;97390.30;125489;1104;103075;-75
2021/05/02 10:23:18;;;;;;;19.00;6.87;;;;;;;18.79;73.41;97388.23;125610;1104;103104;-76
2021/05/02 10:25:48;;;;;;;15.60;6.20;;;;;;;18.81;73.33;97386.16;125603;1104;103101;-74
2021/05/02 10:28:25;;;;;;;10.50;3.50;;;;;;;18.78;73.59;97380.38;125555;1104;102991;-76
2021/05/02 10:30:57;;;;;;;10.97;4.20;;;;;;;18.65;73.57;97373.11;125590;1104;103082;-74
2021/05/02 10:33:42;;;;;;;12.70;3.40;;;;;;;18.60;73.45;97363.78;125572;1104;103055;-71
2021/05/02 10:36:13;;;;;;;7.17;3.23;;;;;;;18.57;73.68;97368.73;125578;1104;103129;-74
2021/05/02 10:38:49;;;;;;;10.93;4.10;;;;;;;18.60;73.32;97363.78;125337;1096;102992;-76
2021/05/02 10:41:37;;;;;;;9.97;3.70;;;;;;;18.66;73.18;97355.92;125450;1096;103059;-73
2021/05/02 15:03:54;;;;;;;5.95;3.35;;;;;;;13.05;66.38;97748.81;125590;1087;103477;-80
2021/05/02 15:06:23;;;;;;;9.13;4.40;;;;;;;13.03;66.41;97748.13;125401;1104;103067;-71
2021/05/02 15:08:50;;;;;;;14.40;5.37;;;;;;;13.03;66.45;97768.66;125383;1104;103001;-73
2021/05/02 15:11:18;;;;;;;11.95;4.00;;;;;;;13.02;66.20;97775.00;125394;1096;102987;-74
2021/05/02 15:13:45;;;;;;;9.73;3.90;;;;;;;12.97;65.97;97779.97;125405;1096;102981;-74
2021/05/02 15:16:13;;;;;;;6.97;3.70;;;;;;;12.88;66.03;97792.41;125420;1104;103008;-75
2021/05/02 15:18:40;;;;;;;9.87;3.67;;;;;;;12.80;66.14;97778.05;125359;1096;103078;-75
2021/05/02 15:21:08;;;;;;;11.57;4.20;;;;;;;12.75;66.13;97782.16;125417;1104;103107;-76
2021/05/02 15:23:35;;;;;;;10.67;4.37;;;;;;;12.73;66.06;97797.49;125244;1104;103128;-77
2021/05/02 15:26:03;;;;;;;8.63;4.50;;;;;;;12.72;65.81;97804.67;125188;1104;103010;-76
2021/05/02 15:28:30;;;;;;;9.60;4.30;;;;;;;12.72;65.87;97807.34;125244;1104;103011;-74
2021/05/02 15:30:58;;;;;;;8.47;4.13;;;;;;;12.72;65.94;97833.17;125206;1100;103055;-76
2021/05/02 15:33:26;;;;;;;9.63;4.37;;;;;;;12.74;65.71;97812.51;125196;1104;103107;-76
2021/05/02 15:35:54;;;;;;;10.05;4.40;;;;;;;12.76;65.49;97811.38;125217;1097;103109;-75
2021/05/02 15:38:21;;;;;;;9.33;4.40;;;;;;;12.75;65.71;97804.36;125288;1097;103619;-75